createdAt,value
2023-03-31T00:00:00.766Z,1.60
2023-03-31T00:02:30.029Z,1.50
2023-03-31T00:05:00.011Z,1.65
2023-03-31T00:07:27.374Z,1.52
2023-03-31T00:10:06.847Z,1.52
2023-03-31T00:12:37.899Z,1.70
2023-03-31T00:15:05.384Z,1.50
2023-03-31T00:17:33.392Z,1.67
2023-03-31T00:20:04.830Z,1.70
2023-03-31T00:22:32.260Z,1.40
2023-03-31T00:24:59.519Z,1.60
2023-03-31T00:27:28.263Z,1.58
2023-03-31T00:29:55.707Z,1.52
2023-03-31T00:32:23.000Z,1.50
2023-03-31T00:34:50.314Z,1.50
2023-03-31T00:37:17.581Z,1.50
2023-03-31T00:39:44.815Z,1.60
2023-03-31T00:42:13.120Z,1.58
2023-03-31T00:45:00.355Z,1.23
2023-03-31T00:47:29.766Z,1.40
2023-03-31T00:49:57.626Z,1.60
2023-03-31T00:52:27.482Z,1.63
2023-03-31T00:54:57.546Z,1.58
2023-03-31T00:57:28.610Z,1.25
2023-03-31T00:59:58.773Z,1.55
2023-03-31T01:02:26.240Z,1.60
2023-03-31T01:04:57.453Z,1.35
2023-03-31T01:07:31.015Z,1.67
2023-03-31T01:10:03.798Z,1.40
2023-03-31T01:12:31.172Z,1.42
2023-03-31T01:14:58.642Z,1.50
2023-03-31T01:17:29.935Z,1.50
2023-03-31T01:19:59.557Z,1.90
2023-03-31T01:22:45.871Z,1.42
2023-03-31T01:25:28.221Z,1.45
2023-03-31T01:28:18.192Z,1.92
2023-03-31T01:30:48.568Z,1.63
2023-03-31T01:33:21.853Z,1.63
2023-03-31T01:35:59.759Z,1.52
2023-03-31T01:38:38.949Z,1.33
2023-03-31T01:41:14.220Z,1.55
2023-03-31T01:43:47.273Z,1.50
2023-03-31T01:46:22.052Z,1.30
2023-03-31T01:49:00.863Z,1.60
2023-03-31T01:51:34.122Z,1.42
2023-03-31T01:54:12.655Z,1.42
2023-03-31T01:56:47.297Z,1.48
2023-03-31T01:59:33.370Z,1.40
2023-03-31T02:02:02.419Z,1.30
2023-03-31T02:04:32.768Z,1.30
2023-03-31T02:07:13.546Z,1.40
2023-03-31T02:09:43.406Z,1.40
2023-03-31T02:12:12.083Z,1.50
2023-03-31T02:14:41.560Z,1.33
2023-03-31T02:17:14.162Z,1.60
2023-03-31T02:19:43.561Z,1.30
2023-03-31T02:22:11.495Z,1.60
2023-03-31T02:24:39.390Z,1.27
2023-03-31T02:27:10.679Z,1.30
2023-03-31T02:29:37.963Z,1.33
2023-03-31T02:32:12.681Z,1.27
2023-03-31T02:34:39.952Z,1.40
2023-03-31T02:37:07.222Z,1.25
2023-03-31T02:39:35.754Z,1.53
2023-03-31T02:42:07.434Z,1.60
2023-03-31T02:44:38.499Z,1.20
2023-03-31T02:47:07.382Z,1.45
2023-03-31T02:49:35.350Z,1.48
2023-03-31T02:52:21.369Z,1.40
2023-03-31T02:55:04.290Z,1.42
2023-03-31T02:57:35.263Z,1.30
2023-03-31T03:00:20.898Z,1.35
2023-03-31T03:02:53.970Z,1.48
2023-03-31T03:05:45.947Z,1.42
2023-03-31T03:08:31.646Z,1.45
2023-03-31T03:11:18.275Z,1.42
2023-03-31T03:13:53.581Z,1.42
2023-03-31T03:16:21.777Z,1.15
2023-03-31T03:18:59.264Z,1.38
2023-03-31T03:21:26.914Z,1.70
2023-03-31T03:23:54.885Z,1.27
2023-03-31T03:26:23.901Z,1.45
2023-03-31T03:28:54.019Z,1.30
2023-03-31T03:31:23.972Z,1.35
2023-03-31T03:33:51.728Z,1.40
2023-03-31T03:36:19.062Z,1.55
2023-03-31T03:38:46.352Z,1.30
2023-03-31T03:41:13.581Z,0.88
2023-03-31T03:43:40.952Z,1.27
2023-03-31T03:46:08.463Z,1.40
2023-03-31T03:48:35.947Z,1.45
2023-03-31T03:51:03.488Z,1.50
2023-03-31T03:53:30.709Z,1.40
2023-03-31T03:55:59.315Z,1.50
2023-03-31T03:58:26.590Z,1.42
2023-03-31T04:00:53.830Z,1.20
2023-03-31T04:03:21.104Z,1.45
2023-03-31T04:05:51.542Z,1.37
2023-03-31T04:08:18.975Z,1.40
2023-03-31T04:10:49.104Z,1.40
2023-03-31T04:13:16.856Z,1.33
2023-03-31T04:15:44.243Z,1.40
2023-03-31T04:18:18.674Z,1.33
2023-03-31T04:20:46.230Z,1.33
2023-03-31T04:23:14.852Z,1.30
2023-03-31T04:25:46.302Z,1.42
2023-03-31T04:28:14.668Z,1.30
2023-03-31T04:30:41.890Z,1.38
2023-03-31T04:33:09.166Z,1.25
2023-03-31T04:35:54.407Z,1.40
2023-03-31T04:38:22.680Z,1.45
2023-03-31T04:43:17.691Z,1.60
2023-03-31T04:45:45.243Z,1.60
2023-03-31T04:48:12.578Z,1.50
2023-03-31T04:50:39.901Z,1.63
2023-03-31T04:53:07.690Z,1.43
2023-03-31T04:55:35.177Z,1.40
2023-03-31T04:58:02.445Z,1.65
2023-03-31T05:00:30.026Z,1.37
2023-03-31T05:02:57.437Z,1.70
2023-03-31T05:05:24.910Z,1.50
2023-03-31T05:07:52.176Z,1.33
2023-03-31T05:10:19.438Z,1.58
2023-03-31T05:12:46.649Z,1.50
2023-03-31T05:15:13.835Z,1.70
2023-03-31T05:17:41.116Z,1.40
2023-03-31T05:20:08.626Z,1.30
2023-03-31T05:22:36.807Z,1.70
2023-03-31T05:25:05.016Z,1.65
2023-03-31T05:29:59.494Z,1.50
2023-03-31T05:32:27.537Z,1.43
2023-03-31T05:34:58.177Z,1.70
2023-03-31T05:37:25.969Z,1.77
2023-03-31T05:39:53.576Z,1.80
2023-03-31T05:42:21.317Z,1.45
2023-03-31T05:44:48.538Z,1.92
2023-03-31T05:47:16.048Z,1.80
2023-03-31T05:49:43.379Z,1.60
2023-03-31T05:52:10.996Z,1.63
2023-03-31T05:54:38.287Z,1.65
2023-03-31T05:57:05.839Z,1.80
2023-03-31T05:59:35.104Z,1.83
2023-03-31T06:02:03.123Z,1.67
2023-03-31T06:04:32.661Z,1.90
2023-03-31T06:07:00.166Z,1.67
2023-03-31T06:09:28.387Z,1.87
2023-03-31T06:14:22.906Z,1.53
2023-03-31T06:16:50.186Z,1.70
2023-03-31T06:19:17.419Z,2.03
2023-03-31T06:21:44.643Z,2.30
2023-03-31T06:24:11.872Z,2.15
2023-03-31T06:26:39.168Z,2.27
2023-03-31T06:29:06.547Z,2.10
2023-03-31T06:31:33.976Z,2.00
2023-03-31T06:34:01.226Z,2.17
2023-03-31T06:36:28.492Z,2.00
2023-03-31T06:38:55.708Z,2.08
2023-03-31T06:41:23.210Z,2.00
2023-03-31T06:43:50.796Z,2.17
2023-03-31T06:46:18.086Z,2.40
2023-03-31T06:48:45.391Z,2.00
2023-03-31T06:51:13.004Z,2.13
2023-03-31T06:53:40.329Z,2.15
2023-03-31T06:56:07.963Z,2.40
2023-03-31T06:58:36.355Z,2.03
2023-03-31T07:03:32.289Z,2.20
2023-03-31T07:05:59.616Z,2.50
2023-03-31T07:08:26.886Z,7.25
2023-03-31T07:10:58.156Z,3.40
2023-03-31T07:13:26.171Z,3.10
2023-03-31T07:15:53.494Z,3.53
2023-03-31T07:18:21.222Z,4.23
2023-03-31T07:20:50.559Z,5.00
2023-03-31T07:23:18.394Z,5.32
2023-03-31T07:25:45.640Z,4.43
2023-03-31T07:28:12.917Z,4.07
2023-03-31T07:30:41.365Z,4.93
2023-03-31T07:33:08.715Z,4.43
2023-03-31T07:35:38.583Z,3.80
2023-03-31T07:38:06.258Z,4.00
2023-03-31T07:40:33.523Z,4.00
2023-03-31T07:43:01.129Z,3.78
2023-03-31T07:45:28.590Z,3.78
2023-03-31T07:47:56.305Z,3.13
2023-03-31T07:50:23.963Z,3.67
2023-03-31T07:52:51.953Z,3.35
2023-03-31T07:55:20.086Z,3.00
2023-03-31T08:00:16.074Z,3.13
2023-03-31T08:02:43.903Z,3.53
2023-03-31T08:05:14.705Z,4.03
2023-03-31T08:07:43.111Z,3.70
2023-03-31T08:10:14.269Z,3.80
2023-03-31T08:12:41.540Z,4.15
2023-03-31T08:15:09.305Z,4.05
2023-03-31T08:17:36.606Z,3.78
2023-03-31T08:20:07.958Z,3.67
2023-03-31T08:22:35.622Z,3.67
2023-03-31T08:25:03.045Z,3.60
2023-03-31T08:27:33.209Z,3.90
2023-03-31T08:30:04.481Z,3.90
2023-03-31T08:32:32.672Z,3.65
2023-03-31T08:37:28.416Z,3.50
2023-03-31T08:39:56.290Z,3.75
2023-03-31T08:42:29.636Z,4.32
2023-03-31T08:45:07.017Z,8.68
2023-03-31T08:47:36.688Z,4.43
2023-03-31T08:50:07.502Z,5.30
2023-03-31T08:52:36.817Z,4.85
2023-03-31T08:55:14.209Z,4.78
2023-03-31T08:57:48.944Z,4.10
2023-03-31T09:00:18.211Z,4.13
2023-03-31T09:02:49.443Z,3.70
2023-03-31T09:05:16.715Z,3.80
2023-03-31T09:07:50.119Z,3.88
2023-03-31T09:10:28.443Z,3.55
2023-03-31T09:13:07.358Z,3.08
2023-03-31T09:15:41.085Z,3.63
2023-03-31T09:18:15.194Z,3.22
2023-03-31T09:20:44.409Z,3.70
2023-03-31T09:23:20.508Z,3.45
2023-03-31T09:25:49.050Z,3.63
2023-03-31T09:28:36.650Z,3.70
2023-03-31T09:31:15.005Z,4.05
2023-03-31T09:33:45.516Z,3.38
2023-03-31T09:36:19.339Z,3.38
2023-03-31T09:38:47.451Z,3.17
2023-03-31T09:41:16.237Z,3.53
2023-03-31T09:43:46.187Z,3.58
2023-03-31T09:46:17.329Z,3.92
2023-03-31T09:48:51.044Z,3.00
2023-03-31T09:51:24.513Z,3.08
2023-03-31T09:53:54.533Z,3.35
2023-03-31T09:56:40.307Z,3.38
2023-03-31T09:59:07.668Z,2.90
2023-03-31T10:01:36.560Z,3.03
2023-03-31T10:04:08.490Z,3.67
2023-03-31T10:06:41.442Z,3.75
2023-03-31T10:09:11.223Z,3.53
2023-03-31T10:11:38.654Z,3.58
2023-03-31T10:14:07.611Z,3.05
2023-03-31T10:16:43.609Z,3.42
2023-03-31T10:19:16.848Z,3.28
2023-03-31T10:21:46.407Z,3.33
2023-03-31T10:24:18.912Z,3.30
2023-03-31T10:26:49.645Z,3.03
2023-03-31T10:29:22.064Z,3.22
2023-03-31T10:31:49.468Z,3.20
2023-03-31T10:34:17.243Z,3.28
2023-03-31T10:36:48.984Z,3.30
2023-03-31T10:39:17.154Z,3.40
2023-03-31T10:44:31.425Z,3.38
2023-03-31T10:47:05.078Z,3.28
2023-03-31T10:49:37.860Z,3.25
2023-03-31T10:52:14.739Z,2.95
2023-03-31T10:54:47.065Z,2.90
2023-03-31T10:57:15.645Z,3.38
2023-03-31T11:00:02.037Z,2.67
2023-03-31T11:02:41.626Z,3.17
2023-03-31T11:05:18.634Z,2.80
2023-03-31T11:08:00.985Z,2.85
2023-03-31T11:10:43.604Z,3.10
2023-03-31T11:13:29.137Z,2.85
2023-03-31T11:16:08.268Z,2.97
2023-03-31T11:18:50.752Z,3.00
2023-03-31T11:21:26.389Z,3.08
2023-03-31T11:24:09.911Z,2.53
2023-03-31T11:26:42.413Z,2.80
2023-03-31T11:29:28.425Z,2.90
2023-03-31T11:32:01.837Z,2.65
2023-03-31T11:34:45.729Z,2.90
2023-03-31T11:37:18.345Z,2.80
2023-03-31T11:39:45.547Z,2.58
2023-03-31T11:42:17.283Z,3.28
2023-03-31T11:44:52.990Z,2.50
2023-03-31T11:47:23.210Z,2.60
2023-03-31T11:49:56.156Z,2.97
2023-03-31T11:52:23.316Z,2.80
2023-03-31T11:54:50.538Z,2.22
2023-03-31T11:57:20.732Z,2.60
2023-03-31T11:59:50.220Z,2.78
2023-03-31T12:02:23.839Z,2.40
2023-03-31T12:04:56.496Z,2.20
2023-03-31T12:07:24.002Z,2.67
2023-03-31T12:10:06.651Z,2.30
2023-03-31T12:12:36.262Z,2.60
2023-03-31T12:15:09.204Z,2.90
2023-03-31T12:17:37.807Z,2.38
2023-03-31T12:20:10.618Z,2.35
2023-03-31T12:22:44.099Z,2.45
2023-03-31T12:25:15.115Z,2.42
2023-03-31T12:27:54.721Z,2.78
2023-03-31T12:30:37.521Z,2.25
2023-03-31T12:33:07.809Z,2.38
2023-03-31T12:35:47.418Z,2.53
2023-03-31T12:38:17.706Z,2.30
2023-03-31T12:40:57.146Z,2.40
2023-03-31T12:43:43.265Z,2.50
2023-03-31T12:46:19.811Z,2.45
2023-03-31T12:48:56.497Z,2.28
2023-03-31T12:51:41.371Z,2.30
2023-03-31T12:54:08.724Z,2.58
2023-03-31T12:57:03.992Z,2.57
2023-03-31T12:59:38.697Z,2.42
2023-03-31T13:02:18.047Z,2.30
2023-03-31T13:04:45.623Z,2.55
2023-03-31T13:07:29.420Z,2.47
2023-03-31T13:10:15.247Z,2.58
2023-03-31T13:12:42.571Z,2.20
2023-03-31T13:15:14.892Z,2.37
2023-03-31T13:17:43.080Z,2.20
2023-03-31T13:22:38.561Z,2.60
2023-03-31T13:25:24.988Z,2.30
2023-03-31T13:27:53.736Z,2.03
2023-03-31T13:30:39.422Z,2.20
2023-03-31T13:33:10.837Z,2.17
2023-03-31T13:35:39.396Z,1.80
2023-03-31T13:38:06.637Z,1.90
2023-03-31T13:40:46.597Z,1.90
2023-03-31T13:43:32.232Z,1.83
2023-03-31T13:46:06.346Z,1.98
2023-03-31T13:48:46.025Z,2.15
2023-03-31T13:51:32.043Z,1.70
2023-03-31T13:54:24.558Z,1.85
2023-03-31T13:57:22.002Z,1.60
2023-03-31T14:00:12.444Z,1.80
2023-03-31T14:02:49.157Z,2.00
2023-03-31T14:05:31.757Z,1.88
2023-03-31T14:08:00.644Z,1.65
2023-03-31T14:10:35.826Z,2.05
2023-03-31T14:13:10.809Z,2.10
2023-03-31T14:15:39.516Z,1.73
2023-03-31T14:18:07.837Z,1.92
2023-03-31T14:20:35.262Z,1.83
2023-03-31T14:23:02.489Z,1.50
2023-03-31T14:25:50.009Z,1.58
2023-03-31T14:28:20.315Z,1.73
2023-03-31T14:31:05.580Z,1.67
2023-03-31T14:33:38.630Z,1.77
2023-03-31T14:36:21.708Z,1.55
2023-03-31T14:38:49.382Z,1.50
2023-03-31T14:41:20.153Z,1.38
2023-03-31T14:43:49.876Z,1.38
2023-03-31T14:46:20.379Z,1.40
2023-03-31T14:48:48.307Z,1.60
2023-03-31T14:51:16.394Z,1.25
2023-03-31T14:53:43.780Z,1.38
2023-03-31T14:56:15.814Z,1.50
2023-03-31T14:58:48.582Z,1.52
2023-03-31T15:01:21.347Z,1.70
2023-03-31T15:03:48.730Z,1.90
2023-03-31T15:06:16.609Z,1.67
2023-03-31T15:08:44.543Z,1.48
2023-03-31T15:11:19.079Z,1.38
2023-03-31T15:14:03.662Z,1.98
2023-03-31T15:16:36.206Z,1.40
2023-03-31T15:19:06.545Z,1.60
2023-03-31T15:21:37.652Z,1.75
2023-03-31T15:24:04.956Z,1.65
2023-03-31T15:26:42.171Z,1.50
2023-03-31T15:29:15.608Z,1.48
2023-03-31T15:31:43.132Z,1.70
2023-03-31T15:34:37.025Z,1.40
2023-03-31T15:37:07.825Z,1.60
2023-03-31T15:39:36.898Z,1.70
2023-03-31T15:42:08.728Z,1.55
2023-03-31T15:44:36.218Z,1.60
2023-03-31T15:47:08.747Z,1.70
2023-03-31T15:49:37.240Z,1.67
2023-03-31T15:52:04.548Z,1.47
2023-03-31T15:54:34.922Z,1.60
2023-03-31T15:57:03.604Z,1.70
2023-03-31T15:59:41.759Z,1.85
2023-03-31T16:04:49.343Z,1.65
2023-03-31T16:07:19.939Z,1.70
2023-03-31T16:09:52.843Z,1.52
2023-03-31T16:12:31.720Z,1.80
2023-03-31T16:15:00.457Z,1.95
2023-03-31T16:17:31.362Z,1.92
2023-03-31T16:20:10.859Z,1.67
2023-03-31T16:22:40.617Z,1.90
2023-03-31T16:25:18.570Z,1.48
2023-03-31T16:27:50.351Z,1.75
2023-03-31T16:30:20.549Z,1.77
2023-03-31T16:33:04.562Z,1.70
2023-03-31T16:35:37.073Z,1.70
2023-03-31T16:38:04.850Z,1.77
2023-03-31T16:40:35.511Z,2.30
2023-03-31T16:43:17.959Z,1.90
2023-03-31T16:45:47.031Z,2.10
2023-03-31T16:48:16.675Z,1.98
2023-03-31T16:50:46.028Z,2.42
2023-03-31T16:53:14.273Z,1.98
2023-03-31T16:58:11.408Z,2.30
2023-03-31T17:00:40.561Z,2.10
2023-03-31T17:03:09.096Z,2.17
2023-03-31T17:05:40.095Z,2.00
2023-03-31T17:08:08.540Z,2.05
2023-03-31T17:10:36.212Z,2.30
2023-03-31T17:13:03.807Z,1.88
2023-03-31T17:15:31.049Z,2.08
2023-03-31T17:17:59.100Z,2.15
2023-03-31T17:22:56.252Z,2.20
2023-03-31T17:25:23.652Z,1.80
2023-03-31T17:27:51.017Z,2.17
2023-03-31T17:30:18.334Z,2.07
2023-03-31T17:32:45.694Z,1.97
2023-03-31T17:35:20.319Z,2.28
2023-03-31T17:37:50.432Z,1.85
2023-03-31T17:40:17.758Z,1.80
2023-03-31T17:42:45.138Z,2.37
2023-03-31T17:45:12.860Z,2.05
2023-03-31T17:47:40.153Z,2.08
2023-03-31T17:50:08.898Z,2.63
2023-03-31T17:52:36.624Z,2.08
2023-03-31T17:55:04.422Z,2.25
2023-03-31T17:57:32.317Z,2.17
2023-03-31T17:59:59.761Z,2.38
2023-03-31T18:02:27.279Z,2.30
2023-03-31T18:04:54.751Z,1.80
2023-03-31T18:07:23.507Z,2.13
2023-03-31T18:09:50.776Z,1.83
2023-03-31T18:12:18.878Z,2.15
2023-03-31T18:14:46.188Z,2.10
2023-03-31T18:17:15.032Z,2.10
2023-03-31T18:19:43.279Z,2.30
2023-03-31T18:24:39.048Z,2.38
2023-03-31T18:27:06.945Z,1.80
2023-03-31T18:29:34.362Z,2.28
2023-03-31T18:32:01.917Z,2.22
2023-03-31T18:34:29.343Z,2.10
2023-03-31T18:36:56.742Z,1.97
2023-03-31T18:39:24.014Z,1.98
2023-03-31T18:41:54.338Z,2.50
2023-03-31T18:44:22.276Z,2.45
2023-03-31T18:46:49.746Z,2.05
2023-03-31T18:49:17.194Z,1.95
2023-03-31T18:51:44.481Z,2.03
2023-03-31T18:54:11.986Z,2.20
2023-03-31T18:56:39.250Z,1.88
2023-03-31T18:59:06.467Z,1.80
2023-03-31T19:01:35.110Z,2.08
2023-03-31T19:04:02.430Z,2.33
2023-03-31T19:06:29.722Z,2.37
2023-03-31T19:08:57.617Z,1.90
2023-03-31T19:11:24.935Z,2.40
2023-03-31T19:13:54.291Z,2.23
2023-03-31T19:16:21.735Z,2.17
2023-03-31T19:21:16.165Z,2.03
2023-03-31T19:23:43.401Z,2.37
2023-03-31T19:26:12.279Z,1.90
2023-03-31T19:28:39.520Z,2.13
2023-03-31T19:31:06.910Z,2.15
2023-03-31T19:33:34.250Z,2.00
2023-03-31T19:36:02.134Z,1.97
2023-03-31T19:38:32.137Z,2.30
2023-03-31T19:41:00.175Z,2.22
2023-03-31T19:43:29.457Z,2.10
2023-03-31T19:45:58.341Z,2.42
2023-03-31T19:48:27.209Z,2.28
2023-03-31T19:50:56.304Z,2.15
2023-03-31T19:53:23.935Z,1.80
2023-03-31T19:56:02.078Z,2.55
2023-03-31T19:58:35.227Z,1.92
2023-03-31T20:01:03.041Z,2.30
2023-03-31T20:03:30.856Z,2.05
2023-03-31T20:06:04.817Z,2.00
2023-03-31T20:08:32.489Z,1.73
2023-03-31T20:11:00.713Z,1.90
2023-03-31T20:13:28.179Z,2.50
2023-03-31T20:15:59.681Z,1.87
2023-03-31T20:18:27.638Z,2.17
2023-03-31T20:21:04.479Z,2.20
2023-03-31T20:23:32.176Z,2.00
2023-03-31T20:26:00.955Z,2.33
2023-03-31T20:28:29.155Z,2.20
2023-03-31T20:33:24.590Z,2.15
2023-03-31T20:38:19.189Z,2.05
2023-03-31T20:40:47.701Z,2.17
2023-03-31T20:43:14.948Z,1.83
2023-03-31T20:45:44.654Z,1.98
2023-03-31T20:48:11.874Z,1.70
2023-03-31T20:50:40.361Z,2.15
2023-03-31T20:53:07.854Z,1.70
2023-03-31T20:55:35.092Z,1.73
2023-03-31T20:58:02.332Z,1.97
2023-03-31T21:00:29.571Z,2.07
2023-03-31T21:02:56.836Z,1.70
2023-03-31T21:05:24.074Z,1.80
2023-03-31T21:07:51.311Z,1.70
2023-03-31T21:10:18.527Z,1.73
2023-03-31T21:12:46.395Z,2.08
2023-03-31T21:15:13.831Z,1.60
2023-03-31T21:17:41.059Z,1.90
2023-03-31T21:20:08.799Z,1.97
2023-03-31T21:22:36.022Z,1.80
2023-03-31T21:25:03.314Z,1.75
2023-03-31T21:27:30.905Z,2.03
2023-03-31T21:29:58.148Z,1.90
2023-03-31T21:32:25.790Z,1.80
2023-03-31T21:34:53.093Z,1.65
2023-03-31T21:37:20.499Z,1.60
2023-03-31T21:39:47.713Z,1.60
2023-03-31T21:42:14.925Z,1.75
2023-03-31T21:44:42.573Z,1.83
2023-03-31T21:47:09.805Z,1.80
2023-03-31T21:49:39.349Z,1.40
2023-03-31T21:52:06.596Z,1.70
2023-03-31T21:54:33.862Z,1.90
2023-03-31T21:57:01.481Z,1.80
2023-03-31T21:59:28.723Z,1.60
2023-03-31T22:01:57.461Z,1.77
2023-03-31T22:04:24.816Z,1.67
2023-03-31T22:06:52.308Z,1.50
2023-03-31T22:09:19.525Z,1.48
2023-03-31T22:11:49.436Z,1.63
2023-03-31T22:14:16.655Z,1.50
2023-03-31T22:16:43.975Z,1.40
2023-03-31T22:19:13.266Z,1.80
2023-03-31T22:21:41.080Z,1.50
2023-03-31T22:24:11.447Z,1.58
2023-03-31T22:26:38.669Z,1.83
2023-03-31T22:29:05.923Z,1.70
2023-03-31T22:31:33.219Z,1.63
2023-03-31T22:34:00.449Z,1.70
2023-03-31T22:36:27.841Z,1.40
2023-03-31T22:38:55.358Z,1.60
2023-03-31T22:41:25.102Z,1.40
2023-03-31T22:43:52.453Z,1.40
2023-03-31T22:46:19.757Z,1.40
2023-03-31T22:48:50.710Z,1.50
2023-03-31T22:51:18.205Z,1.50
2023-03-31T22:53:49.628Z,1.27
2023-03-31T22:56:17.136Z,1.73
2023-03-31T22:58:44.428Z,1.55
2023-03-31T23:01:18.345Z,1.40
2023-03-31T23:03:46.263Z,1.48
2023-03-31T23:06:14.785Z,1.48
2023-03-31T23:08:45.412Z,1.67
2023-03-31T23:11:13.374Z,1.38
2023-03-31T23:13:40.795Z,1.58
2023-03-31T23:16:18.537Z,1.52
2023-03-31T23:18:47.468Z,1.52
2023-03-31T23:21:16.251Z,1.40
2023-03-31T23:23:43.766Z,1.27
2023-03-31T23:26:12.371Z,1.30
2023-03-31T23:28:39.648Z,1.50
2023-03-31T23:31:07.092Z,1.30
2023-03-31T23:33:34.520Z,1.17
2023-03-31T23:36:03.189Z,1.25
2023-03-31T23:38:31.216Z,1.50
2023-03-31T23:40:58.892Z,1.30
2023-03-31T23:43:27.485Z,1.48
2023-03-31T23:45:55.062Z,1.20
2023-03-31T23:48:23.272Z,1.58
2023-03-31T23:53:17.892Z,1.25
2023-03-31T23:55:53.012Z,1.40
2023-03-31T23:58:20.445Z,1.40
